Skip Navigation

Christman Field Latest Observations

Switch to metric unitsOther observation timesWeekly graphs

Date Time
MST
Temp
°F
RH
%
DewPt
°F
Wind
mph
Dir
°
Gust
mph
Dir
°
Press
in Hg
Solar
W/m^2
Prec
in
2020-08-03 13:10 79.8 40.3 53.6 7.9 133 12.0 133 24.954 593.1 0.00
2020-08-03 13:05 80.7 40.6 54.6 6.9 85 11.0 134 24.951 204.0 0.00
2020-08-03 13:00 81.3 36.6 52.3 8.9 139 13.9 147 24.951 492.2 0.00
2020-08-03 12:55 81.2 39.9 54.6 5.9 108 13.9 114 24.955 569.5 0.00
2020-08-03 12:50 81.7 38.0 53.6 8.2 164 11.9 137 24.957 769.7 0.00
2020-08-03 12:45 81.6 38.7 54.1 9.2 146 12.8 78 24.958 897.0 0.00
2020-08-03 12:40 80.8 40.0 54.2 7.0 102 11.8 154 24.959 884.0 0.00
2020-08-03 12:35 81.1 40.9 55.1 6.5 86 11.7 101 24.962 863.0 0.00
2020-08-03 12:30 80.2 40.3 54.0 7.4 153 12.1 90 24.964 846.0 0.00
2020-08-03 12:25 79.6 42.3 54.7 6.7 113 11.0 143 24.963 838.0 0.00
2020-08-03 12:20 80.0 42.9 55.5 7.0 123 13.1 97 24.965 830.0 0.00
2020-08-03 12:15 79.5 42.3 54.6 7.6 111 12.6 141 24.966 855.0 0.00
2020-08-03 12:10 79.9 44.0 56.0 6.8 113 9.2 114 24.967 851.0 0.00
2020-08-03 12:05 79.4 43.0 54.9 6.1 112 11.3 112 24.968 848.0 0.00
2020-08-03 12:00 79.3 41.5 53.9 4.8 148 10.4 141 24.971 813.0 0.00
2020-08-03 11:55 77.9 44.5 54.6 4.9 95 8.7 124 24.976 845.0 0.00
2020-08-03 11:50 78.5 44.0 54.8 7.2 120 11.1 140 24.978 839.0 0.00
2020-08-03 11:45 77.4 46.7 55.4 4.1 140 7.1 80 24.979 838.0 0.00
2020-08-03 11:40 76.7 46.0 54.4 4.9 116 8.2 125 24.979 805.0 0.00
2020-08-03 11:35 76.5 46.7 54.6 3.7 122 7.8 127 24.982 820.0 0.00
2020-08-03 11:30 76.6 47.0 54.9 5.5 135 7.5 71 24.984 805.0 0.00
2020-08-03 11:25 76.6 47.4 55.1 4.1 122 7.6 111 24.985 775.1 0.00
2020-08-03 11:20 75.6 49.0 55.1 4.0 8 7.7 23 24.986 659.3 0.00
2020-08-03 11:15 75.5 48.1 54.5 3.0 142 7.8 35 24.987 734.1 0.00
2020-08-03 11:10 75.1 48.0 54.1 5.1 60 7.3 66 24.987 723.3 0.00
2020-08-03 11:05 74.9 48.2 54.0 4.5 32 7.3 70 24.988 542.9 0.00
2020-08-03 11:00 73.1 51.7 54.3 3.2 89 6.5 52 24.989 832.0 0.00
2020-08-03 10:55 72.5 51.5 53.6 5.1 33 8.3 20 24.992 829.0 0.00
2020-08-03 10:50 72.1 51.8 53.4 4.5 22 6.6 46 24.995 831.0 0.00
2020-08-03 10:45 72.2 53.2 54.3 5.8 26 8.8 47 24.997 774.1 0.00